createdAt,value
2018-08-04T00:01:42.329Z,6.03
2018-08-04T00:04:11.517Z,4.00
2018-08-04T00:06:39.584Z,3.53
2018-08-04T00:09:10.388Z,4.63
2018-08-04T00:11:38.821Z,3.57
2018-08-04T00:14:07.266Z,4.00
2018-08-04T00:16:35.875Z,7.53
2018-08-04T00:19:04.028Z,3.23
2018-08-04T00:21:32.417Z,7.17
2018-08-04T00:24:00.778Z,3.47
2018-08-04T00:26:32.958Z,2.70
2018-08-04T00:29:02.297Z,6.00
2018-08-04T00:31:32.178Z,5.43
2018-08-04T00:34:00.668Z,2.73
2018-08-04T00:36:29.062Z,4.00
2018-08-04T00:38:57.537Z,3.17
2018-08-04T00:41:25.904Z,3.77
2018-08-04T00:43:54.257Z,4.57
2018-08-04T00:46:22.637Z,3.53
2018-08-04T00:48:51.016Z,5.23
2018-08-04T00:51:19.516Z,3.60
2018-08-04T00:53:47.968Z,3.70
2018-08-04T00:56:16.388Z,5.03
2018-08-04T00:58:44.785Z,6.33
2018-08-04T01:01:13.269Z,3.40
2018-08-04T01:03:41.657Z,3.00
2018-08-04T01:06:10.012Z,3.83
2018-08-04T01:08:38.368Z,5.80
2018-08-04T01:11:06.832Z,3.87
2018-08-04T01:13:35.305Z,3.83
2018-08-04T01:16:03.759Z,2.93
2018-08-04T01:18:32.172Z,4.77
2018-08-04T01:21:00.569Z,4.93
2018-08-04T01:23:28.945Z,5.73
2018-08-04T01:25:57.376Z,6.17
2018-08-04T01:28:25.777Z,5.23
2018-08-04T01:30:54.227Z,3.60
2018-08-04T01:33:22.671Z,4.80
2018-08-04T01:35:51.028Z,4.97
2018-08-04T01:38:19.449Z,3.07
2018-08-04T01:40:47.857Z,6.03
2018-08-04T01:43:16.289Z,5.73
2018-08-04T01:45:44.748Z,5.43
2018-08-04T01:48:13.139Z,7.40
2018-08-04T01:50:41.501Z,3.23
2018-08-04T01:53:10.073Z,5.23
2018-08-04T01:55:38.453Z,3.87
2018-08-04T01:58:06.862Z,3.80
2018-08-04T02:00:34.928Z,2.77
2018-08-04T02:03:03.297Z,4.63
2018-08-04T02:05:31.453Z,6.80
2018-08-04T02:07:59.825Z,3.40
2018-08-04T02:10:28.195Z,3.30
2018-08-04T02:12:56.612Z,2.97
2018-08-04T02:15:24.965Z,3.40
2018-08-04T02:17:53.350Z,5.27
2018-08-04T02:20:21.721Z,2.50
2018-08-04T02:22:50.096Z,2.97
2018-08-04T02:25:18.571Z,2.70
2018-08-04T02:27:46.969Z,2.93
2018-08-04T02:30:15.368Z,2.60
2018-08-04T02:32:43.749Z,2.77
2018-08-04T02:35:12.135Z,4.23
2018-08-04T02:37:40.547Z,3.73
2018-08-04T02:40:09.022Z,5.03
2018-08-04T02:42:37.413Z,3.27
2018-08-04T02:45:06.302Z,2.43
2018-08-04T02:47:34.677Z,4.97
2018-08-04T02:50:03.096Z,3.40
2018-08-04T02:52:31.510Z,4.30
2018-08-04T02:54:59.869Z,3.93
2018-08-04T02:57:28.350Z,3.10
2018-08-04T02:59:56.778Z,3.00
2018-08-04T03:02:25.160Z,3.13
2018-08-04T03:04:53.607Z,4.97
2018-08-04T03:07:22.027Z,3.70
2018-08-04T03:09:50.737Z,4.70
2018-08-04T03:12:19.133Z,5.73
2018-08-04T03:14:47.497Z,2.97
2018-08-04T03:17:15.958Z,4.43
2018-08-04T03:19:44.327Z,3.70
2018-08-04T03:22:12.686Z,4.60
2018-08-04T03:24:41.110Z,5.10
2018-08-04T03:27:09.533Z,4.63
2018-08-04T03:29:37.946Z,3.13
2018-08-04T03:32:06.477Z,3.97
2018-08-04T03:34:34.901Z,3.80
2018-08-04T03:37:02.984Z,4.03
2018-08-04T03:39:31.410Z,5.67
2018-08-04T03:41:59.775Z,3.30
2018-08-04T03:44:28.204Z,5.07
2018-08-04T03:46:56.709Z,4.13
2018-08-04T03:49:25.077Z,3.30
2018-08-04T03:51:53.473Z,7.20
2018-08-04T03:54:21.861Z,3.23
2018-08-04T03:56:50.221Z,5.00
2018-08-04T03:59:18.603Z,4.07
2018-08-04T04:01:46.953Z,6.70
2018-08-04T04:04:15.319Z,3.30
2018-08-04T04:06:43.753Z,4.67
2018-08-04T04:09:12.141Z,4.47
2018-08-04T04:11:40.476Z,5.57
2018-08-04T04:14:08.901Z,4.23
2018-08-04T04:16:37.242Z,5.87
2018-08-04T04:19:05.689Z,4.37
2018-08-04T04:21:35.009Z,5.63
2018-08-04T04:24:03.447Z,7.63
2018-08-04T04:26:31.783Z,5.13
2018-08-04T04:29:00.227Z,6.43
2018-08-04T04:31:28.647Z,4.87
2018-08-04T04:33:57.029Z,4.90
2018-08-04T04:36:25.408Z,5.03
2018-08-04T04:38:53.813Z,4.23
2018-08-04T04:41:22.173Z,3.93
2018-08-04T04:43:50.569Z,5.80
2018-08-04T04:46:18.938Z,6.20
2018-08-04T04:48:47.311Z,6.10
2018-08-04T04:51:15.822Z,5.07
2018-08-04T04:53:44.216Z,8.13
2018-08-04T04:56:12.645Z,7.23
2018-08-04T04:58:41.057Z,6.10
2018-08-04T05:01:09.476Z,6.33
2018-08-04T05:03:37.849Z,6.03
2018-08-04T05:06:06.278Z,6.23
2018-08-04T05:08:34.643Z,6.43
2018-08-04T05:11:03.034Z,2.83
2018-08-04T05:13:31.390Z,3.07
2018-08-04T05:16:00.059Z,4.83
2018-08-04T05:18:28.415Z,3.03
2018-08-04T05:20:56.492Z,3.83
2018-08-04T05:23:24.581Z,3.50
2018-08-04T05:25:52.997Z,4.63
2018-08-04T05:28:21.680Z,5.47
2018-08-04T05:30:50.059Z,3.80
2018-08-04T05:33:18.577Z,4.53
2018-08-04T05:35:46.949Z,5.67
2018-08-04T05:38:15.321Z,5.83
2018-08-04T05:40:43.737Z,6.00
2018-08-04T05:43:12.156Z,6.30
2018-08-04T05:45:40.538Z,3.60
2018-08-04T05:48:08.926Z,5.73
2018-08-04T05:50:37.305Z,5.53
2018-08-04T05:53:06.588Z,3.40
2018-08-04T05:55:34.990Z,3.40
2018-08-04T05:58:03.452Z,4.50
2018-08-04T06:00:31.762Z,5.17
2018-08-04T06:03:00.154Z,6.47
2018-08-04T06:05:28.502Z,4.50
2018-08-04T06:07:57.581Z,5.23
2018-08-04T06:10:29.132Z,4.87
2018-08-04T06:13:00.481Z,5.27
2018-08-04T06:15:29.304Z,5.07
2018-08-04T06:17:57.811Z,4.97
2018-08-04T06:20:26.186Z,4.47
2018-08-04T06:22:57.188Z,6.43
2018-08-04T06:25:25.612Z,4.97
2018-08-04T06:27:54.096Z,5.03
2018-08-04T06:30:22.507Z,6.10
2018-08-04T06:32:50.585Z,5.80
2018-08-04T06:35:19.079Z,4.93
2018-08-04T06:37:47.474Z,5.73
2018-08-04T06:40:15.865Z,5.77
2018-08-04T06:42:44.265Z,8.10
2018-08-04T06:45:13.089Z,5.63
2018-08-04T06:47:41.440Z,6.73
2018-08-04T06:50:10.021Z,5.77
2018-08-04T06:52:38.417Z,5.10
2018-08-04T06:55:06.910Z,6.23
2018-08-04T06:57:35.314Z,6.27
2018-08-04T07:00:04.089Z,5.40
2018-08-04T07:02:32.597Z,5.73
2018-08-04T07:05:00.999Z,4.27
2018-08-04T07:07:29.441Z,10.00
2018-08-04T07:09:57.568Z,4.30
2018-08-04T07:12:25.960Z,6.60
2018-08-04T07:14:54.385Z,3.77
2018-08-04T07:17:22.816Z,3.93
2018-08-04T07:19:51.417Z,5.93
2018-08-04T07:22:19.822Z,5.00
2018-08-04T07:24:48.200Z,5.77
2018-08-04T07:27:16.680Z,4.83
2018-08-04T07:29:45.137Z,4.23
2018-08-04T07:32:13.505Z,4.53
2018-08-04T07:34:41.898Z,6.07
2018-08-04T07:37:10.298Z,6.27
2018-08-04T07:39:38.661Z,6.53
2018-08-04T07:42:07.133Z,7.80
2018-08-04T07:44:35.700Z,9.83
2018-08-04T07:47:04.102Z,3.77
2018-08-04T07:49:32.514Z,7.17
2018-08-04T07:52:00.647Z,4.00
2018-08-04T07:54:29.013Z,5.90
2018-08-04T07:57:15.324Z,3.20
2018-08-04T07:59:44.412Z,4.00
2018-08-04T08:02:12.810Z,3.50
2018-08-04T08:04:41.256Z,3.60
2018-08-04T08:07:09.677Z,4.60
2018-08-04T08:09:38.043Z,7.67
2018-08-04T08:12:07.314Z,3.40
2018-08-04T08:14:35.709Z,4.77
2018-08-04T08:17:04.061Z,2.77
2018-08-04T08:19:32.216Z,7.93
2018-08-04T08:22:01.089Z,4.03
2018-08-04T08:24:29.474Z,5.20
2018-08-04T08:26:57.976Z,2.50
2018-08-04T08:29:26.388Z,3.63
2018-08-04T08:31:54.827Z,4.67
2018-08-04T08:34:23.203Z,3.70
2018-08-04T08:36:51.766Z,6.80
2018-08-04T08:39:20.231Z,3.93
2018-08-04T08:41:48.751Z,3.93
2018-08-04T08:44:17.335Z,4.00
2018-08-04T08:46:46.207Z,2.27
2018-08-04T08:49:14.794Z,2.53
2018-08-04T08:51:43.343Z,3.07
2018-08-04T08:54:12.448Z,3.90
2018-08-04T08:56:41.193Z,2.53
2018-08-04T08:59:09.758Z,3.70
2018-08-04T09:01:38.492Z,2.63
2018-08-04T09:04:07.572Z,3.63
2018-08-04T09:06:36.180Z,2.80
2018-08-04T09:09:07.209Z,2.87
2018-08-04T09:11:35.789Z,3.60
2018-08-04T09:14:04.447Z,2.50
2018-08-04T09:16:33.235Z,3.20
2018-08-04T09:19:01.908Z,2.13
2018-08-04T09:21:30.582Z,2.60
2018-08-04T09:23:59.247Z,3.30
2018-08-04T09:26:27.851Z,4.27
2018-08-04T09:28:56.386Z,5.37
2018-08-04T09:44:39.691Z,3.07
2018-08-04T09:47:48.258Z,2.83
2018-08-04T09:50:47.484Z,2.50
2018-08-04T09:53:42.988Z,3.43
2018-08-04T09:57:17.678Z,4.47
2018-08-04T09:59:53.032Z,4.00
2018-08-04T10:05:36.894Z,7.13
2018-08-04T10:08:35.132Z,2.70
2018-08-04T10:11:09.456Z,2.33
2018-08-04T10:13:45.232Z,2.50
2018-08-04T10:16:13.827Z,3.67
2018-08-04T10:18:42.758Z,2.43
2018-08-04T10:21:11.434Z,2.57
2018-08-04T10:23:40.147Z,6.30
2018-08-04T10:26:08.783Z,4.73
2018-08-04T10:28:37.173Z,3.83
2018-08-04T10:31:05.741Z,2.60
2018-08-04T10:33:34.477Z,5.50
2018-08-04T10:36:02.589Z,4.83
2018-08-04T10:38:31.659Z,5.20
2018-08-04T10:41:00.063Z,3.10
2018-08-04T10:43:28.486Z,3.13
2018-08-04T10:45:56.966Z,3.37
2018-08-04T10:48:25.413Z,5.17
2018-08-04T10:50:53.967Z,3.20
2018-08-04T10:53:22.614Z,3.97
2018-08-04T10:55:51.168Z,2.57
2018-08-04T10:58:19.545Z,3.70
2018-08-04T11:00:48.877Z,3.37
2018-08-04T11:03:17.301Z,4.03
2018-08-04T11:05:45.977Z,2.83
2018-08-04T11:08:14.457Z,3.93
2018-08-04T11:10:44.210Z,2.10
2018-08-04T11:13:45.306Z,3.27
2018-08-04T11:16:47.241Z,2.03
2018-08-04T11:19:28.015Z,2.23
2018-08-04T11:30:36.052Z,3.50
2018-08-04T11:33:05.130Z,3.77
2018-08-04T11:35:33.316Z,4.00
2018-08-04T11:38:01.856Z,2.00
2018-08-04T11:40:43.643Z,2.63
2018-08-04T12:06:08.538Z,6.23
2018-08-04T12:08:37.121Z,2.97
2018-08-04T12:11:05.291Z,2.97
2018-08-04T12:13:33.733Z,2.57
2018-08-04T12:16:02.111Z,3.40
2018-08-04T12:18:31.188Z,5.40
2018-08-04T12:20:59.628Z,4.40
2018-08-04T12:23:28.023Z,3.90
2018-08-04T12:25:56.475Z,3.27
2018-08-04T12:28:24.934Z,2.17
2018-08-04T12:30:53.384Z,2.27
2018-08-04T12:33:22.502Z,4.00
2018-08-04T12:35:50.932Z,3.50
2018-08-04T12:38:19.342Z,2.80
2018-08-04T12:40:47.967Z,5.27
2018-08-04T12:43:16.389Z,3.77
2018-08-04T12:45:44.736Z,2.70
2018-08-04T12:48:13.195Z,3.53
2018-08-04T12:50:41.659Z,4.90
2018-08-04T12:53:10.040Z,4.33
2018-08-04T12:55:38.528Z,2.50
2018-08-04T12:58:07.004Z,2.60
2018-08-04T13:00:35.463Z,2.97
2018-08-04T13:03:03.932Z,4.00
2018-08-04T13:05:32.345Z,2.87
2018-08-04T13:08:00.974Z,4.17
2018-08-04T13:10:29.376Z,4.50
2018-08-04T13:12:57.761Z,3.10
2018-08-04T13:15:26.309Z,4.50
2018-08-04T13:17:54.784Z,4.33
2018-08-04T13:20:23.164Z,4.57
2018-08-04T13:22:51.673Z,2.33
2018-08-04T13:25:22.913Z,2.47
2018-08-04T13:27:51.353Z,2.77
2018-08-04T13:30:20.776Z,2.73
2018-08-04T13:32:48.900Z,2.07
2018-08-04T13:35:18.101Z,2.97
2018-08-04T13:37:46.559Z,4.30
2018-08-04T13:40:16.842Z,2.20
2018-08-04T13:42:48.320Z,2.03
2018-08-04T13:45:16.752Z,2.27
2018-08-04T13:47:45.209Z,1.97
2018-08-04T13:50:13.650Z,1.93
2018-08-04T13:52:41.900Z,3.60
2018-08-04T13:55:10.384Z,1.80
2018-08-04T13:57:38.937Z,2.33
2018-08-04T14:00:07.620Z,1.97
2018-08-04T14:02:36.144Z,4.33
2018-08-04T14:05:04.764Z,2.80
2018-08-04T14:07:33.264Z,2.83
2018-08-04T14:10:01.709Z,2.27
2018-08-04T14:12:30.265Z,2.43
2018-08-04T14:14:58.648Z,4.17
2018-08-04T14:17:27.102Z,4.17
2018-08-04T14:19:55.152Z,2.73
2018-08-04T14:22:23.657Z,2.23
2018-08-04T14:24:52.111Z,4.83
2018-08-04T14:27:20.534Z,3.67
2018-08-04T14:29:48.947Z,2.50
2018-08-04T14:32:17.089Z,2.60
2018-08-04T14:34:45.565Z,3.47
2018-08-04T14:37:14.023Z,3.00
2018-08-04T14:39:43.398Z,3.23
2018-08-04T14:42:11.835Z,2.57
2018-08-04T14:44:40.343Z,2.70
2018-08-04T14:47:09.019Z,4.27
2018-08-04T14:49:37.464Z,2.30
2018-08-04T14:52:06.002Z,3.77
2018-08-04T14:54:34.578Z,2.60
2018-08-04T14:57:03.032Z,6.00
2018-08-04T14:59:31.427Z,2.30
2018-08-04T15:02:00.046Z,3.72
2018-08-04T15:04:28.501Z,4.93
2018-08-04T15:06:56.935Z,3.03
2018-08-04T15:09:25.462Z,3.40
2018-08-04T15:11:54.611Z,3.53
2018-08-04T15:14:23.023Z,3.77
2018-08-04T15:16:51.442Z,2.77
2018-08-04T15:19:19.986Z,4.87
2018-08-04T15:21:48.398Z,2.67
2018-08-04T15:24:16.836Z,4.87
2018-08-04T15:26:45.270Z,2.53
2018-08-04T15:29:13.777Z,2.87
2018-08-04T15:31:42.181Z,2.83
2018-08-04T15:34:10.593Z,4.17
2018-08-04T15:36:39.042Z,3.20
2018-08-04T15:39:09.195Z,6.27
2018-08-04T15:41:37.650Z,3.47
2018-08-04T15:44:06.045Z,3.53
2018-08-04T15:46:34.513Z,4.10
2018-08-04T15:49:03.037Z,3.97
2018-08-04T15:51:31.462Z,5.23
2018-08-04T15:54:00.255Z,3.40
2018-08-04T15:56:28.723Z,4.70
2018-08-04T15:58:57.559Z,4.27
2018-08-04T16:01:25.989Z,5.63
2018-08-04T16:03:54.405Z,4.67
2018-08-04T16:06:22.812Z,4.80
2018-08-04T16:08:51.289Z,5.07
2018-08-04T16:11:19.882Z,4.77
2018-08-04T16:13:48.381Z,5.73
2018-08-04T16:16:16.780Z,3.77
2018-08-04T16:18:45.222Z,4.40
2018-08-04T16:21:13.614Z,4.20
2018-08-04T16:23:42.097Z,4.30
2018-08-04T16:26:12.193Z,5.20
2018-08-04T16:28:40.530Z,3.27
2018-08-04T16:31:09.053Z,3.97
2018-08-04T16:33:37.477Z,5.83
2018-08-04T16:36:05.577Z,4.40
2018-08-04T16:38:33.921Z,5.10
2018-08-04T16:41:02.365Z,12.30
2018-08-04T16:43:30.733Z,5.87
2018-08-04T16:45:59.094Z,3.37
2018-08-04T16:48:27.487Z,5.33
2018-08-04T16:50:55.950Z,4.30
2018-08-04T16:53:24.442Z,5.13
2018-08-04T16:55:52.924Z,4.97
2018-08-04T16:58:21.356Z,6.63
2018-08-04T17:00:49.726Z,3.40
2018-08-04T17:03:18.208Z,5.03
2018-08-04T17:05:46.669Z,5.03
2018-08-04T17:08:15.082Z,5.87
2018-08-04T17:10:44.107Z,4.47
2018-08-04T17:13:12.520Z,12.97
2018-08-04T17:15:40.949Z,6.10
2018-08-04T17:18:09.454Z,3.93
2018-08-04T17:20:37.813Z,8.63
2018-08-04T17:23:06.531Z,3.73
2018-08-04T17:25:34.933Z,2.70
2018-08-04T17:28:03.612Z,5.50
2018-08-04T17:30:34.957Z,4.20
2018-08-04T17:33:03.369Z,3.77
2018-08-04T17:35:31.818Z,2.60
2018-08-04T17:38:00.089Z,4.30
2018-08-04T17:40:28.534Z,4.03
2018-08-04T17:42:57.042Z,7.17
2018-08-04T17:45:25.452Z,3.10
2018-08-04T17:47:53.847Z,4.20
2018-08-04T17:50:22.356Z,3.40
2018-08-04T17:52:50.877Z,4.17
2018-08-04T17:55:18.985Z,2.63
2018-08-04T17:57:47.354Z,4.83
2018-08-04T18:00:15.827Z,6.20
2018-08-04T18:02:44.299Z,3.77
2018-08-04T18:05:12.710Z,3.53
2018-08-04T18:07:41.153Z,2.50
2018-08-04T18:10:09.658Z,3.07
2018-08-04T18:12:38.772Z,4.47
2018-08-04T18:15:07.289Z,2.70
2018-08-04T18:17:35.715Z,7.50
2018-08-04T18:20:04.540Z,7.30
2018-08-04T18:22:32.906Z,4.33
2018-08-04T18:25:01.331Z,2.87
2018-08-04T18:27:29.783Z,3.07
2018-08-04T18:29:58.303Z,3.20
2018-08-04T18:32:26.644Z,6.13
2018-08-04T18:34:55.096Z,3.17
2018-08-04T18:37:23.572Z,5.23
2018-08-04T18:39:51.985Z,4.00
2018-08-04T18:42:20.436Z,4.27
2018-08-04T18:44:48.865Z,3.83
2018-08-04T18:47:17.302Z,3.47
2018-08-04T18:49:46.437Z,4.50
2018-08-04T18:52:15.012Z,4.30
2018-08-04T18:54:43.412Z,4.30
2018-08-04T18:57:11.881Z,5.07
2018-08-04T18:59:40.320Z,4.57
2018-08-04T19:02:08.774Z,5.47
2018-08-04T19:04:37.202Z,8.77
2018-08-04T19:07:05.647Z,5.60
2018-08-04T19:09:34.115Z,5.73
2018-08-04T19:12:02.568Z,6.70
2018-08-04T19:14:31.021Z,6.57
2018-08-04T19:16:59.505Z,6.80
2018-08-04T19:19:27.931Z,7.13
2018-08-04T19:21:56.343Z,6.87
2018-08-04T19:24:24.868Z,6.60
2018-08-04T19:26:53.322Z,6.90
2018-08-04T19:29:21.730Z,8.90
2018-08-04T19:31:50.290Z,9.07
2018-08-04T19:34:18.938Z,8.63
2018-08-04T19:36:47.431Z,7.87
2018-08-04T19:39:15.930Z,8.33
2018-08-04T19:41:44.420Z,7.80
2018-08-04T19:44:12.828Z,7.67
2018-08-04T19:46:41.218Z,8.67
2018-08-04T19:49:09.661Z,8.57
2018-08-04T19:51:38.121Z,7.23
2018-08-04T19:54:06.689Z,8.30
2018-08-04T19:56:35.150Z,9.40
2018-08-04T19:59:03.514Z,8.30
2018-08-04T20:01:31.933Z,7.53
2018-08-04T20:04:01.078Z,9.33
2018-08-04T20:06:29.501Z,7.57
2018-08-04T20:08:57.910Z,9.30
2018-08-04T20:11:26.997Z,7.20
2018-08-04T20:13:55.349Z,9.83
2018-08-04T20:16:23.885Z,9.60
2018-08-04T20:18:52.826Z,7.57
2018-08-04T20:21:21.270Z,8.50
2018-08-04T20:23:50.430Z,8.67
2018-08-04T20:26:18.877Z,8.80
2018-08-04T20:28:47.276Z,7.77
2018-08-04T20:31:15.713Z,5.43
2018-08-04T20:33:44.164Z,6.77
2018-08-04T20:36:12.573Z,6.37
2018-08-04T20:38:40.984Z,7.40
2018-08-04T20:41:15.951Z,6.90
2018-08-04T20:43:44.334Z,8.00
2018-08-04T20:46:12.833Z,6.53
2018-08-04T20:48:41.233Z,7.70
2018-08-04T20:51:09.697Z,10.03
2018-08-04T20:53:38.102Z,7.83
2018-08-04T20:56:06.642Z,8.23
2018-08-04T20:58:35.163Z,7.67
2018-08-04T21:01:14.912Z,5.63
2018-08-04T21:03:43.333Z,4.13
2018-08-04T21:06:11.743Z,5.77
2018-08-04T21:08:40.796Z,7.80
2018-08-04T21:11:09.183Z,5.10
2018-08-04T21:13:37.626Z,5.67
2018-08-04T21:16:05.993Z,6.60
2018-08-04T21:18:34.627Z,5.60
2018-08-04T21:21:03.063Z,7.63
2018-08-04T21:23:32.154Z,4.20
2018-08-04T21:26:01.086Z,9.88
2018-08-04T21:28:29.199Z,4.43
2018-08-04T21:30:57.769Z,9.07
2018-08-04T21:33:26.175Z,5.30
2018-08-04T21:35:54.681Z,5.80
2018-08-04T21:38:23.297Z,5.90
2018-08-04T21:40:51.665Z,8.00
2018-08-04T21:43:20.010Z,6.43
2018-08-04T21:45:48.362Z,6.07
2018-08-04T21:48:16.776Z,8.17
2018-08-04T21:50:45.189Z,6.67
2018-08-04T21:53:13.269Z,7.47
2018-08-04T21:55:41.461Z,7.93
2018-08-04T21:58:09.993Z,6.63
2018-08-04T22:02:45.652Z,8.00
2018-08-04T22:05:15.248Z,6.47
2018-08-04T22:07:55.189Z,5.67
2018-08-04T22:10:23.567Z,10.07
2018-08-04T22:12:52.004Z,8.80
2018-08-04T22:15:20.364Z,9.10
2018-08-04T22:17:49.011Z,7.60
2018-08-04T22:20:18.669Z,7.53
2018-08-04T22:22:47.088Z,8.90
2018-08-04T22:25:19.749Z,6.57
2018-08-04T22:27:48.236Z,7.37
2018-08-04T22:30:17.841Z,8.57
2018-08-04T22:32:46.897Z,7.93
2018-08-04T22:35:15.356Z,8.43
2018-08-04T22:37:44.255Z,8.37
2018-08-04T22:40:13.831Z,7.13
2018-08-04T22:42:42.732Z,10.13
2018-08-04T22:45:54.627Z,11.07
2018-08-04T22:48:23.290Z,8.87
2018-08-04T22:50:51.691Z,12.13
2018-08-04T22:53:20.085Z,8.37
2018-08-04T22:55:48.484Z,6.87
2018-08-04T22:58:16.843Z,7.50
2018-08-04T23:00:45.497Z,10.67
2018-08-04T23:03:14.380Z,7.97
2018-08-04T23:05:42.881Z,11.40
2018-08-04T23:08:12.216Z,9.93
2018-08-04T23:10:41.042Z,7.60
2018-08-04T23:13:10.061Z,7.87
2018-08-04T23:15:38.521Z,10.20
2018-08-04T23:18:07.192Z,6.70
2018-08-04T23:20:35.634Z,8.37
2018-08-04T23:23:04.073Z,12.10
2018-08-04T23:25:32.593Z,8.47
2018-08-04T23:28:00.977Z,6.43
2018-08-04T23:30:29.486Z,11.10
2018-08-04T23:32:58.021Z,10.10
2018-08-04T23:35:27.026Z,7.03
2018-08-04T23:37:55.404Z,8.33
2018-08-04T23:40:24.114Z,8.33
2018-08-04T23:42:52.591Z,8.47
2018-08-04T23:45:21.001Z,6.63
2018-08-04T23:47:49.396Z,8.00
2018-08-04T23:50:17.849Z,8.60
2018-08-04T23:52:46.113Z,7.43
2018-08-04T23:55:14.608Z,11.43
2018-08-04T23:57:43.039Z,9.27
